Time;durP1;ratioP1;P1;durP2;ratioP2;P2;SDS_P1;SDS_P2;PMS_P1;PMS_P2;Temp;Humidity;BMP_temperature;BMP_pressure;BME280_temperature;BME280_humidity;BME280_pressure;Samples;Min_cycle;Max_cycle;Signal;HPM_P1;HPM_P2
2023/12/12 00:00:19;;;;;;;7.13;2.07;;;8.60;99.90;;;;;;5011197;28;20049;-55
2023/12/12 00:02:45;;;;;;;9.20;1.80;;;8.60;99.90;;;;;;5011235;28;20112;-56
2023/12/12 00:05:10;;;;;;;5.73;1.63;;;8.60;99.90;;;;;;5011072;28;20180;-53
2023/12/12 00:07:36;;;;;;;5.20;1.47;;;8.70;99.90;;;;;;5011322;28;20108;-54
2023/12/12 00:10:02;;;;;;;6.27;2.00;;;8.70;99.90;;;;;;5010707;28;20614;-53
2023/12/12 00:12:28;;;;;;;5.20;1.80;;;8.70;99.90;;;;;;4998341;28;20030;-55
2023/12/12 00:14:54;;;;;;;4.67;1.67;;;8.80;99.90;;;;;;5006907;28;20036;-55
2023/12/12 00:17:19;;;;;;;5.30;1.43;;;8.80;99.90;;;;;;5010671;28;20048;-55
2023/12/12 00:19:45;;;;;;;5.07;1.57;;;8.80;99.90;;;;;;5010766;28;20026;-53
2023/12/12 00:22:11;;;;;;;6.97;1.73;;;8.70;99.90;;;;;;5010881;28;20435;-56
2023/12/12 00:24:37;;;;;;;6.67;1.70;;;8.70;99.90;;;;;;5010645;28;20444;-56
2023/12/12 00:27:02;;;;;;;6.80;1.70;;;8.70;99.90;;;;;;5010673;28;20033;-51
2023/12/12 00:29:30;;;;;;;7.30;1.57;;;8.80;99.90;;;;;;5006054;28;20022;-54
2023/12/12 00:31:55;;;;;;;5.70;1.60;;;8.80;99.90;;;;;;4999299;28;20057;-52
2023/12/12 00:34:21;;;;;;;8.67;1.73;;;8.80;99.90;;;;;;4991289;28;20022;-53
2023/12/12 00:36:47;;;;;;;7.30;1.67;;;8.80;99.90;;;;;;4985207;28;20402;-55
2023/12/12 00:39:12;;;;;;;3.67;1.30;;;8.80;99.90;;;;;;4990759;28;20084;-56
2023/12/12 00:41:38;;;;;;;10.93;1.53;;;8.80;99.90;;;;;;4996881;28;20038;-51
2023/12/12 00:44:04;;;;;;;4.87;1.80;;;8.80;99.90;;;;;;5002234;28;20026;-51
2023/12/12 00:46:29;;;;;;;8.83;1.67;;;8.70;99.90;;;;;;4992957;28;20033;-55
2023/12/12 00:48:55;;;;;;;10.10;1.80;;;8.70;99.90;;;;;;5010690;28;20475;-55
2023/12/12 00:51:20;;;;;;;4.80;1.67;;;8.80;99.90;;;;;;5007325;28;20034;-55
2023/12/12 00:53:46;;;;;;;7.07;1.23;;;8.80;99.90;;;;;;4997423;28;20033;-55
2023/12/12 00:56:12;;;;;;;3.87;1.50;;;8.90;99.90;;;;;;5010328;28;20390;-52
2023/12/12 00:58:38;;;;;;;5.97;1.60;;;8.90;99.90;;;;;;5010097;28;20033;-55
2023/12/12 01:01:04;;;;;;;5.50;1.30;;;8.90;99.90;;;;;;5010327;28;20049;-56
2023/12/12 01:03:30;;;;;;;5.40;1.57;;;8.90;99.90;;;;;;5010308;28;20084;-52
2023/12/12 01:05:56;;;;;;;11.33;1.70;;;8.80;99.90;;;;;;5010298;28;20038;-53
2023/12/12 01:08:21;;;;;;;3.73;1.40;;;8.80;99.90;;;;;;5006901;28;20140;-53
2023/12/12 01:10:47;;;;;;;7.27;1.20;;;8.80;99.90;;;;;;4998882;28;20030;-55
2023/12/12 01:13:12;;;;;;;9.60;1.77;;;8.70;99.90;;;;;;4990319;28;20122;-53
2023/12/12 01:15:38;;;;;;;8.87;1.40;;;8.70;99.90;;;;;;4990611;28;20027;-53
2023/12/12 01:18:04;;;;;;;11.63;2.20;;;8.70;99.90;;;;;;4990618;28;20085;-55
2023/12/12 01:20:29;;;;;;;9.07;1.80;;;8.60;99.90;;;;;;4994811;28;20125;-54
2023/12/12 01:22:55;;;;;;;9.33;2.10;;;8.60;99.90;;;;;;5009914;28;20030;-56
2023/12/12 01:25:20;;;;;;;9.60;1.67;;;8.60;99.90;;;;;;5010073;28;20040;-54
2023/12/12 01:27:46;;;;;;;4.73;1.47;;;8.60;99.90;;;;;;5012243;28;20041;-54
2023/12/12 01:30:12;;;;;;;11.20;1.93;;;8.50;99.90;;;;;;5013808;28;20042;-56
2023/12/12 01:32:38;;;;;;;6.27;2.03;;;8.50;99.90;;;;;;5014044;28;20040;-55
2023/12/12 01:35:03;;;;;;;11.80;2.10;;;8.50;99.90;;;;;;4996937;28;20069;-54
2023/12/12 01:37:29;;;;;;;6.33;1.93;;;8.50;99.90;;;;;;4994364;28;20177;-50
2023/12/12 01:39:55;;;;;;;7.27;2.23;;;8.40;99.90;;;;;;4993934;28;20045;-51
2023/12/12 01:42:20;;;;;;;7.80;1.70;;;8.40;99.90;;;;;;4993965;28;20033;-53
2023/12/12 01:44:46;;;;;;;6.30;2.07;;;8.30;99.90;;;;;;5000363;28;20093;-55
2023/12/12 01:47:12;;;;;;;8.20;1.60;;;8.30;99.90;;;;;;5003980;28;20494;-53
2023/12/12 01:49:38;;;;;;;11.33;1.60;;;8.30;99.90;;;;;;4994086;28;20064;-54
2023/12/12 01:52:04;;;;;;;5.10;1.50;;;8.20;99.90;;;;;;4976566;28;20419;-56
2023/12/12 01:54:31;;;;;;;3.33;1.40;;;8.20;99.90;;;;;;4997994;28;20030;-55
2023/12/12 01:56:57;;;;;;;4.97;1.63;;;8.10;99.90;;;;;;4997827;28;20079;-55
2023/12/12 01:59:25;;;;;;;8.17;1.57;;;8.10;99.90;;;;;;4993644;28;20036;-56
2023/12/12 02:01:51;;;;;;;7.10;1.73;;;8.10;99.90;;;;;;4989389;28;20088;-52
2023/12/12 02:04:18;;;;;;;11.07;2.00;;;8.00;99.90;;;;;;4993695;28;20113;-51
2023/12/12 02:06:46;;;;;;;5.73;1.60;;;8.00;99.90;;;;;;4993947;28;20057;-55
2023/12/12 02:09:11;;;;;;;4.37;1.60;;;8.10;99.90;;;;;;4993451;28;20069;-54
2023/12/12 02:11:37;;;;;;;8.50;2.13;;;8.00;99.90;;;;;;4998890;28;20030;-51
2023/12/12 02:14:03;;;;;;;7.13;1.60;;;8.00;99.90;;;;;;4995466;28;20045;-52
2023/12/12 02:16:28;;;;;;;4.50;1.60;;;8.00;99.90;;;;;;4993580;28;20037;-56
2023/12/12 02:18:54;;;;;;;6.37;1.40;;;8.00;99.90;;;;;;4993586;28;20411;-56
2023/12/12 02:21:20;;;;;;;9.03;2.30;;;8.00;99.90;;;;;;5003936;28;20025;-53
2023/12/12 02:23:49;;;;;;;5.97;1.87;;;7.90;99.90;;;;;;5013111;28;20041;-55
2023/12/12 02:26:15;;;;;;;6.60;1.70;;;7.90;99.90;;;;;;5013087;28;20033;-55
2023/12/12 02:28:41;;;;;;;9.53;1.70;;;7.90;99.90;;;;;;5013013;28;20034;-55
2023/12/12 02:31:09;;;;;;;10.20;1.77;;;7.90;99.90;;;;;;5013446;28;20490;-55
2023/12/12 02:33:34;;;;;;;6.83;1.67;;;7.90;99.90;;;;;;5008943;28;20422;-53
2023/12/12 02:36:00;;;;;;;7.67;2.00;;;7.80;99.90;;;;;;5009001;28;20057;-54
2023/12/12 02:38:26;;;;;;;6.43;1.40;;;7.90;99.90;;;;;;5000920;28;20081;-55
2023/12/12 02:40:51;;;;;;;12.07;1.57;;;7.90;99.90;;;;;;4999574;28;20044;-52
2023/12/12 02:43:17;;;;;;;13.23;1.73;;;7.90;99.90;;;;;;5012660;28;20092;-55
2023/12/12 02:45:43;;;;;;;6.17;1.33;;;7.80;99.90;;;;;;4999731;28;20085;-52
2023/12/12 02:48:08;;;;;;;6.70;1.50;;;7.90;99.90;;;;;;4992995;28;20037;-53
2023/12/12 02:50:34;;;;;;;5.90;1.40;;;7.90;99.90;;;;;;4993204;28;20066;-56
2023/12/12 02:52:59;;;;;;;14.17;2.10;;;7.90;99.90;;;;;;4992741;28;20392;-51
2023/12/12 02:55:25;;;;;;;6.90;1.70;;;7.80;99.90;;;;;;5003724;28;20030;-52
2023/12/12 02:57:51;;;;;;;9.00;1.53;;;7.80;99.90;;;;;;5012246;28;20037;-53
2023/12/12 03:00:16;;;;;;;6.60;1.63;;;7.90;99.90;;;;;;5002759;28;20034;-54
2023/12/12 03:02:42;;;;;;;8.90;1.83;;;7.80;99.90;;;;;;4992903;28;20416;-53
2023/12/12 03:05:08;;;;;;;11.40;2.37;;;7.80;99.90;;;;;;4992605;28;20030;-51
2023/12/12 03:07:33;;;;;;;8.00;1.63;;;7.80;99.90;;;;;;4992621;28;20019;-52
2023/12/12 03:09:59;;;;;;;7.37;1.53;;;7.70;99.90;;;;;;4992454;28;20491;-51
2023/12/12 03:12:25;;;;;;;7.53;1.87;;;7.70;99.90;;;;;;4992578;28;20030;-53
2023/12/12 03:14:50;;;;;;;6.50;1.60;;;7.70;99.90;;;;;;4992548;28;20026;-53
2023/12/12 03:17:16;;;;;;;7.90;1.67;;;7.70;99.90;;;;;;5009769;28;20057;-52
2023/12/12 03:19:41;;;;;;;8.60;1.73;;;7.70;99.90;;;;;;5011971;28;20489;-55
2023/12/12 03:22:07;;;;;;;7.30;1.47;;;7.70;99.90;;;;;;5012078;28;20423;-53
2023/12/12 03:24:32;;;;;;;11.63;2.13;;;7.70;99.90;;;;;;5000300;28;20161;-52
2023/12/12 03:26:58;;;;;;;9.60;1.73;;;7.70;99.90;;;;;;4992375;28;20034;-53
2023/12/12 03:29:24;;;;;;;10.30;1.70;;;7.70;99.90;;;;;;5010431;28;20026;-54
2023/12/12 03:31:49;;;;;;;9.57;1.80;;;7.70;99.90;;;;;;5011792;28;20038;-54
2023/12/12 03:34:15;;;;;;;9.47;2.40;;;7.80;99.90;;;;;;4995364;28;20046;-55
2023/12/12 03:36:45;;;;;;;7.10;1.90;;;7.80;99.90;;;;;;5011636;28;20038;-50
2023/12/12 03:39:11;;;;;;;11.73;1.50;;;7.80;99.90;;;;;;5011253;28;20372;-50
2023/12/12 03:41:37;;;;;;;9.37;1.77;;;7.70;99.90;;;;;;5000118;28;20117;-55
2023/12/12 03:44:02;;;;;;;10.23;1.70;;;7.80;99.90;;;;;;4991985;28;20033;-54
2023/12/12 03:46:28;;;;;;;7.33;1.60;;;7.70;99.90;;;;;;4992275;28;20495;-53
2023/12/12 03:48:54;;;;;;;4.37;1.60;;;7.60;99.90;;;;;;4991918;28;20041;-54
2023/12/12 03:51:19;;;;;;;11.77;1.77;;;7.60;99.90;;;;;;4999084;28;20495;-51
2023/12/12 03:53:45;;;;;;;9.63;1.70;;;7.60;99.90;;;;;;4992344;28;20073;-52
2023/12/12 03:56:11;;;;;;;11.70;2.20;;;7.60;99.90;;;;;;4991918;28;20030;-54
2023/12/12 03:58:36;;;;;;;13.07;2.13;;;7.60;99.90;;;;;;4991708;28;20479;-53
2023/12/12 04:01:02;;;;;;;9.90;2.30;;;7.50;99.90;;;;;;4991953;28;20061;-52
2023/12/12 04:03:28;;;;;;;6.97;1.70;;;7.60;99.90;;;;;;5001892;28;20034;-52
2023/12/12 04:05:53;;;;;;;8.60;2.30;;;7.50;99.90;;;;;;5011277;28;20041;-55
2023/12/12 04:08:19;;;;;;;12.27;2.07;;;7.50;99.90;;;;;;4993916;28;20034;-54
2023/12/12 04:10:45;;;;;;;9.67;2.10;;;7.50;99.90;;;;;;5004578;28;20030;-55
2023/12/12 04:13:19;;;;;;;12.43;1.90;;;7.40;99.90;;;;;;5125848;27;20642;-56
2023/12/12 04:15:44;;;;;;;11.37;2.00;;;7.40;99.90;;;;;;5124070;28;20046;-55
2023/12/12 04:18:10;;;;;;;12.23;2.30;;;7.30;99.90;;;;;;5124436;28;20051;-56
2023/12/12 04:20:35;;;;;;;9.47;2.00;;;7.30;99.90;;;;;;5128158;28;20027;-53
2023/12/12 04:23:01;;;;;;;12.87;1.77;;;7.30;99.90;;;;;;5121451;28;20028;-53
2023/12/12 04:25:27;;;;;;;11.43;2.00;;;7.30;99.90;;;;;;5118239;28;20499;-53
2023/12/12 04:27:53;;;;;;;12.30;2.40;;;7.20;99.90;;;;;;5128313;28;20055;-52
2023/12/12 04:30:18;;;;;;;12.17;1.80;;;7.30;99.90;;;;;;5128151;28;20074;-56
2023/12/12 04:32:44;;;;;;;6.93;1.53;;;7.30;99.90;;;;;;5128358;28;20053;-54
2023/12/12 04:35:10;;;;;;;12.33;2.07;;;7.20;99.90;;;;;;5126991;28;20027;-54
2023/12/12 04:37:36;;;;;;;11.60;2.00;;;7.20;99.90;;;;;;5128284;28;20035;-55
2023/12/12 04:40:02;;;;;;;17.40;2.43;;;7.10;99.90;;;;;;5120095;28;20035;-54
2023/12/12 04:42:28;;;;;;;12.67;2.00;;;7.10;99.90;;;;;;5128307;28;20027;-55
2023/12/12 04:44:53;;;;;;;14.40;2.60;;;7.00;99.90;;;;;;5118650;28;20529;-54
2023/12/12 04:47:19;;;;;;;10.90;2.07;;;7.00;99.90;;;;;;5113678;28;20028;-54
2023/12/12 04:49:44;;;;;;;17.03;2.73;;;7.00;99.90;;;;;;5117360;28;20060;-54
2023/12/12 04:52:10;;;;;;;16.57;2.23;;;7.00;99.90;;;;;;5119730;28;20035;-53
2023/12/12 04:54:36;;;;;;;10.93;1.80;;;6.90;99.90;;;;;;5119086;28;20036;-55
2023/12/12 04:57:02;;;;;;;9.40;2.07;;;7.00;99.90;;;;;;5127698;28;20099;-54
2023/12/12 04:59:28;;;;;;;11.37;2.37;;;7.00;99.90;;;;;;5119007;27;20035;-54
2023/12/12 05:01:54;;;;;;;10.70;1.70;;;6.90;99.90;;;;;;5127779;28;20019;-54
2023/12/12 05:04:19;;;;;;;8.80;1.77;;;6.90;99.90;;;;;;5126540;28;20060;-52
2023/12/12 05:06:46;;;;;;;10.80;2.40;;;6.90;99.90;;;;;;5119642;28;20024;-56
2023/12/12 05:09:12;;;;;;;8.60;1.90;;;6.90;99.90;;;;;;5119038;27;20051;-55
2023/12/12 05:11:37;;;;;;;7.70;1.70;;;6.90;99.90;;;;;;5127305;28;20019;-56
2023/12/12 05:14:07;;;;;;;9.20;1.73;;;6.90;99.90;;;;;;5127544;28;20163;-56
2023/12/12 05:16:32;;;;;;;12.93;1.98;;;7.00;99.90;;;;;;5127545;28;20119;-52
2023/12/12 05:18:58;;;;;;;11.67;2.20;;;7.00;99.90;;;;;;5118847;28;20111;-57
2023/12/12 05:21:25;;;;;;;7.13;1.60;;;7.00;99.90;;;;;;5127379;28;20110;-56
2023/12/12 05:23:51;;;;;;;11.17;1.93;;;6.90;99.90;;;;;;5118254;28;20058;-51
2023/12/12 05:26:19;;;;;;;11.00;2.30;;;6.90;99.90;;;;;;5113787;28;20067;-51
2023/12/12 05:28:46;;;;;;;10.83;1.90;;;6.90;99.90;;;;;;5113557;28;20023;-56
2023/12/12 05:31:11;;;;;;;22.90;7.40;;;6.90;99.90;;;;;;5105954;28;20461;-53
2023/12/12 05:33:37;;;;;;;13.47;2.90;;;6.90;99.90;;;;;;5103821;28;20026;-55
2023/12/12 05:36:03;;;;;;;9.83;2.67;;;7.00;99.90;;;;;;5107129;28;20058;-56
2023/12/12 05:38:29;;;;;;;11.30;2.53;;;7.10;99.90;;;;;;5102659;28;20062;-55
2023/12/12 05:40:56;;;;;;;10.13;2.00;;;7.10;99.90;;;;;;5105015;28;20016;-52
2023/12/12 05:43:21;;;;;;;14.70;2.70;;;7.10;99.90;;;;;;5112863;28;20106;-52
2023/12/12 05:45:47;;;;;;;15.57;3.00;;;7.20;99.90;;;;;;5105304;28;20106;-55
2023/12/12 05:48:13;;;;;;;16.07;2.33;;;7.20;99.90;;;;;;5113016;28;20121;-55
2023/12/12 05:50:39;;;;;;;10.90;3.00;;;7.20;99.90;;;;;;5096834;28;20103;-55
2023/12/12 05:53:04;;;;;;;16.83;2.67;;;7.30;99.90;;;;;;5104558;28;20034;-55
2023/12/12 05:55:30;;;;;;;12.27;2.40;;;7.40;99.90;;;;;;5103387;28;20035;-56
2023/12/12 05:57:56;;;;;;;10.13;2.60;;;7.40;99.90;;;;;;5104694;28;20035;-54
2023/12/12 06:00:21;;;;;;;16.33;2.30;;;7.50;99.90;;;;;;5112840;28;20428;-56
2023/12/12 06:02:47;;;;;;;19.17;2.63;;;7.50;99.90;;;;;;5112986;28;20023;-55
2023/12/12 06:05:13;;;;;;;14.87;3.33;;;7.50;99.90;;;;;;5105813;28;20032;-56
2023/12/12 06:07:38;;;;;;;8.53;1.93;;;7.40;99.90;;;;;;5110332;28;20167;-54
2023/12/12 06:10:08;;;;;;;11.57;2.70;;;7.40;99.90;;;;;;5112816;28;20484;-56
2023/12/12 06:12:34;;;;;;;;;;;7.50;99.90;;;;;;5111658;28;20425;-55
2023/12/12 06:15:00;;;;;;;18.50;2.67;;;7.40;99.90;;;;;;5097646;28;20410;-56
2023/12/12 06:17:26;;;;;;;11.17;2.47;;;7.50;99.90;;;;;;5112372;28;20710;-54
2023/12/12 06:19:52;;;;;;;12.90;3.17;;;7.50;99.90;;;;;;5108512;28;20403;-53
2023/12/12 06:22:18;;;;;;;10.90;2.17;;;7.60;99.90;;;;;;5108727;28;20122;-53
2023/12/12 06:24:43;;;;;;;14.73;2.70;;;7.60;99.90;;;;;;5112187;28;20380;-56
2023/12/12 06:27:10;;;;;;;12.50;2.57;;;7.70;99.90;;;;;;5106028;28;20058;-55
2023/12/12 06:29:35;;;;;;;12.17;2.83;;;7.70;99.90;;;;;;5108882;28;20100;-54
2023/12/12 06:32:01;;;;;;;8.70;2.87;;;7.70;99.90;;;;;;5105733;28;20024;-52
2023/12/12 06:34:27;;;;;;;6.90;1.90;;;7.70;99.90;;;;;;5111138;28;20055;-53
2023/12/12 06:36:53;;;;;;;13.50;2.60;;;7.60;99.90;;;;;;5100192;28;20060;-55
2023/12/12 06:39:18;;;;;;;10.17;2.30;;;7.70;99.90;;;;;;5107966;28;20023;-56
2023/12/12 06:41:44;;;;;;;41.73;14.47;;;7.70;99.90;;;;;;5112184;28;20027;-56
2023/12/12 06:44:10;;;;;;;24.97;8.47;;;7.70;99.90;;;;;;5112236;28;20503;-55
2023/12/12 06:46:36;;;;;;;18.20;3.43;;;7.70;99.90;;;;;;5111049;28;20034;-56
2023/12/12 06:49:03;;;;;;;14.73;3.50;;;7.80;99.90;;;;;;5103599;28;20102;-54
2023/12/12 06:51:29;;;;;;;11.13;2.77;;;7.80;99.90;;;;;;5103062;28;20473;-55
2023/12/12 06:53:57;;;;;;;11.50;2.23;;;7.80;99.90;;;;;;5103780;28;20123;-55
2023/12/12 06:56:23;;;;;;;8.40;2.13;;;7.80;99.90;;;;;;5103570;28;20060;-55
2023/12/12 06:58:48;;;;;;;15.17;2.17;;;7.80;99.90;;;;;;5109686;28;20058;-56
2023/12/12 07:01:14;;;;;;;11.10;2.13;;;7.70;99.90;;;;;;5096727;28;20441;-55
2023/12/12 07:03:40;;;;;;;11.60;2.07;;;7.70;99.90;;;;;;5109871;28;20027;-52
2023/12/12 07:06:06;;;;;;;13.27;3.10;;;7.80;99.90;;;;;;5103393;28;20107;-54
2023/12/12 07:08:32;;;;;;;20.53;2.47;;;7.80;99.90;;;;;;5109809;28;20364;-53
2023/12/12 07:10:58;;;;;;;10.67;2.23;;;7.90;99.90;;;;;;5111300;28;20024;-54
2023/12/12 07:13:23;;;;;;;15.13;2.70;;;7.90;99.90;;;;;;5103197;28;20024;-55
2023/12/12 07:15:49;;;;;;;10.80;2.13;;;7.80;99.90;;;;;;5110850;28;20024;-54
2023/12/12 07:18:14;;;;;;;11.20;2.10;;;7.80;99.90;;;;;;5111204;28;20051;-55
2023/12/12 07:20:41;;;;;;;10.90;2.10;;;7.80;99.90;;;;;;5111088;28;20020;-54
2023/12/12 07:23:07;;;;;;;8.13;2.33;;;7.80;99.90;;;;;;5111058;28;20153;-53
2023/12/12 07:25:33;;;;;;;7.93;2.00;;;7.70;99.90;;;;;;5111078;28;20575;-51
2023/12/12 07:27:58;;;;;;;9.43;2.03;;;7.70;99.90;;;;;;5111026;28;20103;-54
2023/12/12 07:30:24;;;;;;;11.13;1.83;;;7.70;99.90;;;;;;5111097;28;20027;-55
2023/12/12 07:32:49;;;;;;;9.70;3.10;;;7.70;99.90;;;;;;5110982;28;20392;-54
2023/12/12 07:35:16;;;;;;;12.63;2.10;;;7.70;99.90;;;;;;5111211;28;20016;-52
2023/12/12 07:37:42;;;;;;;14.27;2.70;;;7.70;99.90;;;;;;5109415;28;20522;-54
2023/12/12 07:40:08;;;;;;;8.17;2.73;;;7.70;99.90;;;;;;5104427;28;20067;-54
2023/12/12 07:42:34;;;;;;;11.40;2.57;;;7.80;99.90;;;;;;5102361;28;20048;-53
2023/12/12 07:45:01;;;;;;;12.47;2.30;;;7.80;99.90;;;;;;5110768;28;20035;-55
2023/12/12 07:47:26;;;;;;;7.37;2.13;;;7.80;99.90;;;;;;5102225;28;20050;-53
2023/12/12 07:49:52;;;;;;;10.73;1.73;;;7.80;99.90;;;;;;5110447;28;20020;-53
2023/12/12 07:52:18;;;;;;;10.17;2.77;;;7.90;99.90;;;;;;5110853;28;20047;-51
2023/12/12 07:54:43;;;;;;;11.97;2.40;;;7.80;99.90;;;;;;5110395;28;20039;-55
2023/12/12 07:57:12;;;;;;;9.70;2.33;;;7.80;99.90;;;;;;5110488;28;20047;-54
2023/12/12 07:59:37;;;;;;;9.52;2.10;;;7.80;99.90;;;;;;5110282;28;20387;-55
2023/12/12 08:02:03;;;;;;;8.03;2.20;;;7.90;99.90;;;;;;5110495;28;20027;-56
2023/12/12 08:04:29;;;;;;;9.73;2.23;;;7.80;99.90;;;;;;5110463;28;20104;-53
2023/12/12 08:06:54;;;;;;;7.37;2.23;;;7.90;99.90;;;;;;5110352;28;20030;-53
2023/12/12 08:09:20;;;;;;;13.83;3.63;;;8.10;99.90;;;;;;5110205;28;20028;-53
2023/12/12 08:11:46;;;;;;;14.13;3.00;;;8.20;99.90;;;;;;5109201;28;20083;-51
2023/12/12 08:14:12;;;;;;;12.47;2.30;;;8.40;99.90;;;;;;5104962;28;20039;-51
2023/12/12 08:16:37;;;;;;;9.60;3.17;;;8.60;99.90;;;;;;5107952;28;20032;-54
2023/12/12 08:19:03;;;;;;;10.60;2.03;;;8.60;99.90;;;;;;5110492;28;20024;-53
2023/12/12 08:21:29;;;;;;;7.60;1.80;;;8.70;99.90;;;;;;5112034;28;20034;-52
2023/12/12 08:23:55;;;;;;;15.97;2.50;;;8.70;99.90;;;;;;5112040;28;20100;-54
2023/12/12 08:26:24;;;;;;;14.77;2.67;;;8.80;99.90;;;;;;5112185;28;20027;-55
2023/12/12 08:28:50;;;;;;;10.00;2.13;;;8.90;99.90;;;;;;5096650;28;20040;-54
2023/12/12 08:31:15;;;;;;;9.67;2.03;;;8.90;99.90;;;;;;5108792;28;20034;-53
2023/12/12 08:33:42;;;;;;;6.17;1.93;;;8.90;99.90;;;;;;5109459;28;20027;-53
2023/12/12 08:36:10;;;;;;;11.07;2.73;;;8.90;99.90;;;;;;5110044;28;20510;-55
2023/12/12 08:38:36;;;;;;;8.23;1.50;;;8.90;99.90;;;;;;5109811;28;20106;-53
2023/12/12 08:41:02;;;;;;;6.33;1.83;;;8.90;99.90;;;;;;5112779;28;20119;-54
2023/12/12 08:43:28;;;;;;;11.17;2.53;;;8.90;99.90;;;;;;5085396;28;20138;-55
2023/12/12 08:45:55;;;;;;;12.30;2.73;;;8.80;99.90;;;;;;5108530;28;20034;-51
2023/12/12 08:48:21;;;;;;;8.63;1.70;;;8.90;99.90;;;;;;5116461;28;20364;-53
2023/12/12 08:50:48;;;;;;;6.73;1.80;;;9.00;99.90;;;;;;5102969;28;20042;-53
2023/12/12 08:53:15;;;;;;;9.73;1.73;;;9.00;99.90;;;;;;5109688;28;20036;-54
2023/12/12 08:55:42;;;;;;;10.37;2.27;;;9.10;99.90;;;;;;5108205;28;20107;-55
2023/12/12 08:58:07;;;;;;;9.23;2.67;;;9.10;99.90;;;;;;5110215;28;20024;-57
2023/12/12 09:00:33;;;;;;;8.20;1.83;;;9.20;99.90;;;;;;5113694;28;20038;-57
2023/12/12 09:02:59;;;;;;;14.57;2.30;;;9.30;99.90;;;;;;5101559;28;20024;-54
2023/12/12 09:05:25;;;;;;;8.00;1.83;;;9.30;99.90;;;;;;5108744;28;20124;-52
2023/12/12 09:07:51;;;;;;;10.90;1.97;;;9.40;99.90;;;;;;5111234;28;20076;-51
2023/12/12 09:10:17;;;;;;;12.17;2.27;;;9.50;99.90;;;;;;5101196;28;20067;-53
2023/12/12 09:12:42;;;;;;;7.90;1.70;;;9.50;99.90;;;;;;5110584;28;20063;-56
2023/12/12 09:15:08;;;;;;;13.03;2.80;;;9.60;99.90;;;;;;5112087;28;20031;-56
2023/12/12 09:17:34;;;;;;;12.20;3.33;;;9.60;99.90;;;;;;5113409;28;20023;-57
2023/12/12 09:20:00;;;;;;;11.53;2.07;;;9.70;99.90;;;;;;5113227;28;20127;-52
2023/12/12 09:22:27;;;;;;;5.10;2.10;;;9.70;99.90;;;;;;5098378;28;20036;-53
2023/12/12 09:24:54;;;;;;;12.37;2.00;;;9.70;99.90;;;;;;5093811;28;20036;-54
2023/12/12 09:27:20;;;;;;;10.13;1.97;;;9.70;99.90;;;;;;5094350;28;20043;-49
2023/12/12 09:29:45;;;;;;;7.33;1.90;;;9.80;99.90;;;;;;5085904;28;20024;-55
2023/12/12 09:32:12;;;;;;;11.97;2.20;;;9.90;99.90;;;;;;5073933;28;20388;-56
2023/12/12 09:34:39;;;;;;;8.33;1.87;;;9.90;99.90;;;;;;5074240;28;20508;-56
2023/12/12 09:37:05;;;;;;;8.63;2.10;;;9.90;99.90;;;;;;5074076;28;20032;-53
2023/12/12 09:39:30;;;;;;;8.10;1.67;;;10.10;99.90;;;;;;5073817;28;20036;-55
2023/12/12 09:42:00;;;;;;;6.67;1.40;;;10.10;99.90;;;;;;5074030;28;20108;-53
2023/12/12 09:44:31;;;;;;;9.18;2.15;;;10.20;99.90;;;;;;5074069;28;20039;-55
2023/12/12 09:46:58;;;;;;;4.33;1.53;;;10.30;99.90;;;;;;5079623;28;20024;-55
2023/12/12 09:49:25;;;;;;;10.83;1.60;;;10.40;99.90;;;;;;5094160;28;20110;-52
2023/12/12 09:51:52;;;;;;;7.20;1.60;;;10.60;99.90;;;;;;5093675;28;20445;-55
2023/12/12 09:54:18;;;;;;;5.93;1.50;;;10.70;99.90;;;;;;5093447;28;20055;-51
2023/12/12 09:56:46;;;;;;;4.43;1.50;;;10.70;99.90;;;;;;5094065;28;20532;-55
2023/12/12 09:59:12;;;;;;;8.47;1.40;;;10.80;99.90;;;;;;5094133;28;20085;-53
2023/12/12 10:01:41;;;;;;;10.17;1.73;;;10.90;99.90;;;;;;5094052;28;20024;-54
2023/12/12 10:04:08;;;;;;;;;;;11.60;99.90;;;;;;5094527;28;20089;-53
2023/12/12 10:06:47;;;;;;;6.25;1.55;;;12.90;99.90;;;;;;5093810;28;19998;-51
2023/12/12 10:09:12;;;;;;;7.53;1.38;;;14.10;99.90;;;;;;5092509;28;20036;-52
2023/12/12 10:11:39;;;;;;;7.65;1.73;;;15.10;99.90;;;;;;5093717;28;20081;-55
2023/12/12 10:14:05;;;;;;;11.40;1.52;;;15.80;99.90;;;;;;5092642;28;20032;-54
2023/12/12 10:16:30;;;;;;;6.88;1.30;;;16.50;99.90;;;;;;5093720;28;20035;-55
2023/12/12 10:19:01;;;;;;;7.47;1.73;;;17.10;99.90;;;;;;5093633;28;20028;-51
2023/12/12 10:21:28;;;;;;;7.65;1.70;;;17.70;99.90;;;;;;5093737;28;20495;-52
2023/12/12 10:23:54;;;;;;;8.85;1.48;;;18.40;99.90;;;;;;5093642;28;20121;-54
2023/12/12 10:26:32;;;;;;;5.50;1.27;;;19.00;98.30;;;;;;5093623;28;20060;-54
2023/12/12 10:29:01;;;;;;;5.75;1.48;;;19.00;97.60;;;;;;5093583;28;20024;-55
2023/12/12 10:31:28;;;;;;;7.30;1.67;;;18.90;97.50;;;;;;5093389;28;20551;-54
2023/12/12 10:33:56;;;;;;;7.40;1.70;;;19.20;96.80;;;;;;5093493;28;20031;-54
2023/12/12 10:36:23;;;;;;;7.15;1.33;;;19.40;96.20;;;;;;5093417;28;20077;-52
2023/12/12 10:38:48;;;;;;;7.53;1.50;;;19.50;95.70;;;;;;5093255;28;20366;-55
2023/12/12 10:41:19;;;;;;;4.57;1.23;;;19.60;95.70;;;;;;5093276;28;20152;-52
2023/12/12 10:43:46;;;;;;;10.15;1.88;;;19.50;95.20;;;;;;5093300;28;20496;-55
2023/12/12 10:46:14;;;;;;;4.78;1.50;;;19.20;95.90;;;;;;5093163;28;20071;-50
2023/12/12 10:48:44;;;;;;;7.25;1.55;;;18.90;96.00;;;;;;5093151;28;20036;-54
2023/12/12 10:51:11;;;;;;;7.05;1.92;;;18.20;96.90;;;;;;5093079;28;20063;-51
2023/12/12 10:53:37;;;;;;;4.53;1.10;;;18.20;97.10;;;;;;5093150;28;20073;-55
2023/12/12 10:56:05;;;;;;;5.32;1.40;;;17.80;97.60;;;;;;5092951;28;20473;-54
2023/12/12 10:58:33;;;;;;;6.63;1.73;;;17.00;99.10;;;;;;5092789;28;20020;-50
2023/12/12 11:01:00;;;;;;;8.77;2.05;;;15.80;99.90;;;;;;5092850;28;20032;-54
2023/12/12 11:03:26;;;;;;;6.80;1.50;;;14.80;99.90;;;;;;5092868;28;20369;-54
2023/12/12 11:05:54;;;;;;;9.15;1.63;;;14.20;99.90;;;;;;5092774;28;20028;-54
2023/12/12 11:08:20;;;;;;;7.72;1.30;;;13.60;99.90;;;;;;5092859;28;20515;-54
2023/12/12 11:10:46;;;;;;;7.55;1.30;;;13.50;99.90;;;;;;5093091;28;20028;-53
2023/12/12 11:13:15;;;;;;;6.15;1.80;;;13.30;99.90;;;;;;5092501;28;20544;-55
2023/12/12 11:15:42;;;;;;;10.60;2.08;;;13.20;99.90;;;;;;5092610;28;20032;-50
2023/12/12 11:18:09;;;;;;;8.48;1.83;;;13.00;99.90;;;;;;5092673;28;20035;-54
2023/12/12 11:20:40;;;;;;;7.70;1.40;;;12.90;99.90;;;;;;5092347;28;20294;-55
2023/12/12 11:23:07;;;;;;;9.32;1.55;;;12.80;99.90;;;;;;5092455;28;20031;-53
2023/12/12 11:25:34;;;;;;;10.88;1.65;;;12.70;99.90;;;;;;5092283;28;20476;-52
2023/12/12 11:28:02;;;;;;;9.32;2.35;;;12.60;99.90;;;;;;5092293;28;20110;-54
2023/12/12 11:30:38;;;;;;;6.00;1.40;;;12.50;99.90;;;;;;5091057;28;20043;-54
2023/12/12 11:33:06;;;;;;;5.38;1.35;;;12.60;99.90;;;;;;5092352;28;20462;-53
2023/12/12 11:35:32;;;;;;;6.90;1.60;;;12.50;99.90;;;;;;5092168;28;20031;-54
2023/12/12 11:38:33;;;;;;;8.82;1.30;;;12.50;99.90;;;;;;5092197;28;20413;-52
2023/12/12 11:41:09;;;;;;;6.28;1.88;;;12.30;99.90;;;;;;5090832;28;20036;-50
2023/12/12 11:43:36;;;;;;;2.80;1.20;;;12.20;99.90;;;;;;5092240;28;20020;-53
2023/12/12 11:46:21;;;;;;;4.90;1.38;;;12.10;99.90;;;;;;5092164;28;20465;-53
2023/12/12 11:48:46;;;;;;;8.98;1.58;;;12.20;99.90;;;;;;5090724;28;20092;-54
2023/12/12 11:51:34;;;;;;;7.03;0.93;;;12.10;99.90;;;;;;5092243;28;20032;-54
2023/12/12 11:54:06;;;;;;;5.13;1.23;;;12.20;99.90;;;;;;5092137;28;20516;-53
2023/12/12 11:56:32;;;;;;;7.28;1.67;;;12.20;99.90;;;;;;5092046;28;20036;-50
2023/12/12 11:59:00;;;;;;;5.93;1.45;;;12.20;99.90;;;;;;5091801;28;20465;-52
2023/12/12 12:01:26;;;;;;;7.05;1.48;;;12.30;99.90;;;;;;5092045;28;20024;-52
2023/12/12 12:03:52;;;;;;;5.00;1.20;;;12.30;99.90;;;;;;5091932;28;20397;-52
2023/12/12 12:06:18;;;;;;;5.10;1.33;;;12.10;99.90;;;;;;5091768;28;20032;-55
2023/12/12 12:08:44;;;;;;;7.07;1.30;;;12.10;99.90;;;;;;5091739;28;20476;-52
2023/12/12 12:11:11;;;;;;;4.18;1.17;;;12.00;99.90;;;;;;5091617;28;20043;-50
2023/12/12 12:13:43;;;;;;;3.70;0.80;;;12.10;99.90;;;;;;5091687;28;20052;-54
2023/12/12 12:16:10;;;;;;;4.33;1.27;;;11.90;99.90;;;;;;5091698;28;20127;-52
2023/12/12 12:18:36;;;;;;;3.87;1.17;;;11.70;99.90;;;;;;5091879;28;20107;-55
2023/12/12 12:21:03;;;;;;;5.77;1.50;;;11.60;99.90;;;;;;5091678;28;20480;-51
2023/12/12 12:23:30;;;;;;;6.33;1.70;;;11.50;99.90;;;;;;5091873;28;20538;-55
2023/12/12 12:26:02;;;;;;;9.00;1.60;;;11.50;99.90;;;;;;5091572;28;20024;-52
2023/12/12 12:28:32;;;;;;;6.03;1.30;;;11.40;99.90;;;;;;5091592;28;20042;-55
2023/12/12 12:30:58;;;;;;;4.50;0.97;;;11.40;99.90;;;;;;5091962;28;20036;-52
2023/12/12 12:33:31;;;;;;;6.37;1.13;;;11.30;99.90;;;;;;5092715;28;20020;-50
2023/12/12 12:35:57;;;;;;;6.00;1.57;;;11.10;99.90;;;;;;5096072;28;20028;-54
2023/12/12 12:38:26;;;;;;;2.90;0.97;;;11.00;99.90;;;;;;5095682;28;20174;-50
2023/12/12 12:40:52;;;;;;;7.83;1.07;;;10.80;99.90;;;;;;5095568;28;20102;-53
2023/12/12 12:43:18;;;;;;;3.40;0.80;;;10.80;99.90;;;;;;5095545;28;20052;-50
2023/12/12 12:45:47;;;;;;;9.30;2.03;;;10.60;99.90;;;;;;5095322;28;20400;-50